BIENTT MET'MAP
version 2.0 !

Prvue avant fin octobre,
la nouvelle version sera
plus belle, plus complte
et hberge sur un serveur
3 fois plus puissant...
et toujours gratuite !


Pas compatible ?
Essayez la version Mobile !

SE CONNECTER : | S'inscrire | Disclaimer | Découvrir Orbifly |
Code OACI :
Lgende : VFR VFR Marginal IFR IFR Intensif IFR Trs Intensif
Visi :
Plafond :
>= 8 km
>= 3000ft
5 8 km
1000 3000 ft
1500m 5 km
500 1000 ft
800 1500m
200 500 ft
< 800m
< 200 ft

METAR - EGJJ Jersey - 15 Oct 2019 05:44 UTC
Data Sources :     NOAA   


- Altitude de l'aérodrome : 277 ft
- Code IATA : JER
- Pas de NOTAMs connus.


EGJJ - Jersey

Dernier METAR connu : 2015/08/11 07:50 EGJJ 110750Z 06007KT 9999 FEW005 SCT026 17/16 Q1019 NOSIG
TAF TAF EGJJ
Valide du 15 à 03h jusqu'au 15 à 12h UTC


150159Z 1503/1512 23012KT 9999 FEW012
TEMPO 1503/1512 24016G26KT 9000 -SHRA BKN012
PROB30
TEMPO 1504/1512 5000 SHRA

Source NOAA
ATIS : +44 1534 498 073


MET'MAP, la Météo Aéronautique d'un coup d'oeil ! - Copyright ORBIFLY Décembre 2007

Développement & Programmation : Alexandra Zaïnal
Co-Développement : Marc-Olivier Méhu
Soutien technique & logistique : Manuel Goepfert
Conception & Financement : Baudouin d'Aumeries